sensor_id;sensor_type;location;lat;lon;timestamp;pressure;altitude;pressure_sealevel;temperature;humidity
5413;BME280;2729;50.056;8.678;2022-08-21T00:01:24;100327.41;;;19.24;94.43
5413;BME280;2729;50.056;8.678;2022-08-21T00:03:51;100324.47;;;19.14;98.21
5413;BME280;2729;50.056;8.678;2022-08-21T00:06:17;100323.97;;;19.08;97.15
5413;BME280;2729;50.056;8.678;2022-08-21T00:08:44;100325.94;;;19.04;100.00
5413;BME280;2729;50.056;8.678;2022-08-21T00:11:10;100318.50;;;19.11;100.00
5413;BME280;2729;50.056;8.678;2022-08-21T00:13:36;100314.69;;;19.01;99.76
5413;BME280;2729;50.056;8.678;2022-08-21T00:16:03;100309.03;;;19.07;100.00
5413;BME280;2729;50.056;8.678;2022-08-21T00:18:29;100306.41;;;19.07;100.00
5413;BME280;2729;50.056;8.678;2022-08-21T00:20:55;100302.91;;;19.06;100.00
5413;BME280;2729;50.056;8.678;2022-08-21T00:23:21;100310.56;;;19.11;100.00
5413;BME280;2729;50.056;8.678;2022-08-21T00:25:47;100309.03;;;19.07;100.00
5413;BME280;2729;50.056;8.678;2022-08-21T00:28:14;100308.66;;;18.99;100.00
5413;BME280;2729;50.056;8.678;2022-08-21T00:30:41;100306.38;;;18.92;100.00
5413;BME280;2729;50.056;8.678;2022-08-21T00:33:07;100307.09;;;18.80;100.00
5413;BME280;2729;50.056;8.678;2022-08-21T00:35:37;100313.16;;;18.67;100.00
5413;BME280;2729;50.056;8.678;2022-08-21T00:38:04;100304.88;;;18.57;100.00
5413;BME280;2729;50.056;8.678;2022-08-21T00:40:52;100304.78;;;18.58;100.00
5413;BME280;2729;50.056;8.678;2022-08-21T00:43:23;100302.41;;;18.70;100.00
5413;BME280;2729;50.056;8.678;2022-08-21T00:45:49;100297.81;;;18.73;100.00
5413;BME280;2729;50.056;8.678;2022-08-21T00:48:16;100299.16;;;18.80;100.00
5413;BME280;2729;50.056;8.678;2022-08-21T00:50:46;100298.28;;;18.80;100.00
5413;BME280;2729;50.056;8.678;2022-08-21T00:53:14;100305.81;;;18.72;100.00
5413;BME280;2729;50.056;8.678;2022-08-21T00:55:40;100300.97;;;18.48;100.00
5413;BME280;2729;50.056;8.678;2022-08-21T00:58:09;100303.28;;;18.39;100.00
5413;BME280;2729;50.056;8.678;2022-08-21T01:00:39;100302.28;;;18.25;100.00
5413;BME280;2729;50.056;8.678;2022-08-21T01:03:12;100311.56;;;18.33;100.00
5413;BME280;2729;50.056;8.678;2022-08-21T01:05:40;100307.56;;;18.25;100.00
5413;BME280;2729;50.056;8.678;2022-08-21T01:08:07;100307.88;;;18.19;100.00
5413;BME280;2729;50.056;8.678;2022-08-21T01:10:35;100313.03;;;18.22;100.00
5413;BME280;2729;50.056;8.678;2022-08-21T01:13:02;100307.47;;;18.27;100.00
5413;BME280;2729;50.056;8.678;2022-08-21T01:15:33;100308.59;;;18.23;100.00
5413;BME280;2729;50.056;8.678;2022-08-21T01:18:03;100318.88;;;18.12;100.00
5413;BME280;2729;50.056;8.678;2022-08-21T01:20:29;100314.25;;;17.99;100.00
5413;BME280;2729;50.056;8.678;2022-08-21T01:22:55;100319.56;;;18.15;100.00
5413;BME280;2729;50.056;8.678;2022-08-21T01:25:21;100313.50;;;18.13;100.00
5413;BME280;2729;50.056;8.678;2022-08-21T01:27:47;100312.97;;;18.07;100.00
5413;BME280;2729;50.056;8.678;2022-08-21T01:30:15;100313.31;;;18.00;100.00
5413;BME280;2729;50.056;8.678;2022-08-21T01:32:42;100309.66;;;18.03;100.00
5413;BME280;2729;50.056;8.678;2022-08-21T01:35:09;100306.50;;;17.81;100.00
5413;BME280;2729;50.056;8.678;2022-08-21T01:37:35;100314.84;;;17.89;100.00
5413;BME280;2729;50.056;8.678;2022-08-21T01:40:03;100313.38;;;17.83;100.00
5413;BME280;2729;50.056;8.678;2022-08-21T01:42:30;100314.81;;;17.73;100.00
5413;BME280;2729;50.056;8.678;2022-08-21T01:44:56;100312.94;;;17.75;100.00
5413;BME280;2729;50.056;8.678;2022-08-21T01:47:22;100309.16;;;17.63;100.00
5413;BME280;2729;50.056;8.678;2022-08-21T01:49:48;100297.19;;;17.74;100.00
5413;BME280;2729;50.056;8.678;2022-08-21T01:52:14;100304.44;;;17.70;100.00
5413;BME280;2729;50.056;8.678;2022-08-21T01:54:41;100302.94;;;17.64;100.00
5413;BME280;2729;50.056;8.678;2022-08-21T01:57:08;100304.44;;;17.53;100.00
5413;BME280;2729;50.056;8.678;2022-08-21T01:59:35;100301.06;;;17.33;100.00
5413;BME280;2729;50.056;8.678;2022-08-21T02:02:01;100308.66;;;17.40;100.00
5413;BME280;2729;50.056;8.678;2022-08-21T02:04:27;100302.00;;;17.32;100.00
5413;BME280;2729;50.056;8.678;2022-08-21T02:06:53;100302.56;;;17.22;100.00
5413;BME280;2729;50.056;8.678;2022-08-21T02:09:19;100304.88;;;17.28;100.00
5413;BME280;2729;50.056;8.678;2022-08-21T02:11:45;100299.53;;;17.29;100.00
5413;BME280;2729;50.056;8.678;2022-08-21T02:14:13;100303.19;;;17.27;100.00
5413;BME280;2729;50.056;8.678;2022-08-21T02:16:41;100296.28;;;17.24;100.00
5413;BME280;2729;50.056;8.678;2022-08-21T02:19:07;100294.28;;;16.95;100.00
5413;BME280;2729;50.056;8.678;2022-08-21T02:21:33;100289.22;;;17.08;100.00
5413;BME280;2729;50.056;8.678;2022-08-21T02:23:59;100289.06;;;17.11;100.00
5413;BME280;2729;50.056;8.678;2022-08-21T02:26:25;100296.59;;;17.01;100.00
5413;BME280;2729;50.056;8.678;2022-08-21T02:28:51;100295.22;;;16.94;100.00
5413;BME280;2729;50.056;8.678;2022-08-21T02:31:17;100296.91;;;16.95;100.00
5413;BME280;2729;50.056;8.678;2022-08-21T02:33:43;100294.59;;;17.06;100.00
5413;BME280;2729;50.056;8.678;2022-08-21T02:36:11;100293.59;;;16.91;100.00
5413;BME280;2729;50.056;8.678;2022-08-21T02:38:39;100292.25;;;16.83;100.00
5413;BME280;2729;50.056;8.678;2022-08-21T02:41:08;100293.13;;;16.83;100.00
5413;BME280;2729;50.056;8.678;2022-08-21T02:43:34;100295.44;;;16.89;100.00
5413;BME280;2729;50.056;8.678;2022-08-21T02:46:03;100294.81;;;16.84;100.00
5413;BME280;2729;50.056;8.678;2022-08-21T02:48:30;100284.66;;;16.77;100.00
5413;BME280;2729;50.056;8.678;2022-08-21T02:53:29;100281.94;;;16.78;100.00
5413;BME280;2729;50.056;8.678;2022-08-21T02:55:57;100292.81;;;16.72;100.00
5413;BME280;2729;50.056;8.678;2022-08-21T02:58:29;100288.53;;;16.69;100.00
5413;BME280;2729;50.056;8.678;2022-08-21T03:00:57;100295.75;;;16.66;100.00
5413;BME280;2729;50.056;8.678;2022-08-21T03:03:25;100294.94;;;16.64;100.00
5413;BME280;2729;50.056;8.678;2022-08-21T03:05:52;100296.41;;;16.52;100.00
5413;BME280;2729;50.056;8.678;2022-08-21T03:08:19;100291.44;;;16.63;100.00
5413;BME280;2729;50.056;8.678;2022-08-21T03:10:49;100296.41;;;16.52;100.00
5413;BME280;2729;50.056;8.678;2022-08-21T03:13:16;100286.25;;;16.62;100.00
5413;BME280;2729;50.056;8.678;2022-08-21T03:15:43;100281.41;;;16.71;100.00
5413;BME280;2729;50.056;8.678;2022-08-21T03:18:10;100288.34;;;16.55;100.00
5413;BME280;2729;50.056;8.678;2022-08-21T03:20:38;100288.72;;;16.48;100.00
5413;BME280;2729;50.056;8.678;2022-08-21T03:23:05;100288.56;;;16.51;100.00
5413;BME280;2729;50.056;8.678;2022-08-21T03:25:32;100290.19;;;16.53;100.00
5413;BME280;2729;50.056;8.678;2022-08-21T03:27:59;100290.50;;;16.47;100.00
5413;BME280;2729;50.056;8.678;2022-08-21T03:30:25;100292.97;;;16.50;100.00
5413;BME280;2729;50.056;8.678;2022-08-21T03:32:51;100293.13;;;16.47;100.00
5413;BME280;2729;50.056;8.678;2022-08-21T03:35:19;100296.41;;;16.52;100.00
5413;BME280;2729;50.056;8.678;2022-08-21T03:37:46;100303.59;;;16.49;100.00
5413;BME280;2729;50.056;8.678;2022-08-21T03:40:15;100300.56;;;16.39;100.00
5413;BME280;2729;50.056;8.678;2022-08-21T03:42:42;100304.63;;;16.27;100.00
5413;BME280;2729;50.056;8.678;2022-08-21T03:45:08;100303.94;;;16.24;100.00
5413;BME280;2729;50.056;8.678;2022-08-21T03:47:34;100307.19;;;16.29;100.00
5413;BME280;2729;50.056;8.678;2022-08-21T03:50:04;100303.69;;;16.28;100.00
5413;BME280;2729;50.056;8.678;2022-08-21T03:52:31;100310.38;;;16.35;100.00
5413;BME280;2729;50.056;8.678;2022-08-21T03:54:57;100305.91;;;16.37;100.00
5413;BME280;2729;50.056;8.678;2022-08-21T03:57:22;100304.78;;;16.24;100.00
5413;BME280;2729;50.056;8.678;2022-08-21T03:59:48;100302.84;;;16.28;100.00
5413;BME280;2729;50.056;8.678;2022-08-21T04:02:17;100314.69;;;16.19;100.00
5413;BME280;2729;50.056;8.678;2022-08-21T04:04:45;100316.94;;;16.27;100.00
5413;BME280;2729;50.056;8.678;2022-08-21T04:07:11;100313.41;;;16.09;100.00
5413;BME280;2729;50.056;8.678;2022-08-21T04:09:37;100321.59;;;16.03;100.00
5413;BME280;2729;50.056;8.678;2022-08-21T04:12:03;100323.88;;;16.11;100.00
5413;BME280;2729;50.056;8.678;2022-08-21T04:14:29;100330.69;;;16.15;100.00
5413;BME280;2729;50.056;8.678;2022-08-21T04:16:55;100324.72;;;16.11;100.00
5413;BME280;2729;50.056;8.678;2022-08-21T04:19:21;100321.31;;;16.09;100.00
5413;BME280;2729;50.056;8.678;2022-08-21T04:21:47;100325.06;;;16.03;100.00
5413;BME280;2729;50.056;8.678;2022-08-21T04:24:14;100328.06;;;16.15;100.00
5413;BME280;2729;50.056;8.678;2022-08-21T04:26:40;100331.34;;;16.01;100.00
5413;BME280;2729;50.056;8.678;2022-08-21T04:29:06;100341.31;;;16.13;100.00
5413;BME280;2729;50.056;8.678;2022-08-21T04:31:33;100337.25;;;16.06;100.00
5413;BME280;2729;50.056;8.678;2022-08-21T04:34:00;100349.13;;;15.96;100.00
5413;BME280;2729;50.056;8.678;2022-08-21T04:36:26;100340.66;;;16.08;100.00
5413;BME280;2729;50.056;8.678;2022-08-21T04:38:52;100347.19;;;16.18;100.00
5413;BME280;2729;50.056;8.678;2022-08-21T04:41:18;100341.09;;;15.99;100.00
5413;BME280;2729;50.056;8.678;2022-08-21T04:43:44;100342.50;;;16.06;100.00
5413;BME280;2729;50.056;8.678;2022-08-21T04:46:10;100345.22;;;16.04;100.00
5413;BME280;2729;50.056;8.678;2022-08-21T04:48:36;100346.56;;;16.13;100.00
5413;BME280;2729;50.056;8.678;2022-08-21T04:51:09;100349.34;;;16.10;100.00
5413;BME280;2729;50.056;8.678;2022-08-21T04:53:53;100350.13;;;16.12;100.00
5413;BME280;2729;50.056;8.678;2022-08-21T04:56:31;100350.63;;;16.20;100.00
5413;BME280;2729;50.056;8.678;2022-08-21T04:59:16;100353.25;;;16.20;100.00
5413;BME280;2729;50.056;8.678;2022-08-21T05:01:43;100357.31;;;16.27;100.00
5413;BME280;2729;50.056;8.678;2022-08-21T05:04:12;100355.72;;;16.42;100.00
5413;BME280;2729;50.056;8.678;2022-08-21T05:06:41;100368.75;;;16.45;100.00
5413;BME280;2729;50.056;8.678;2022-08-21T05:09:12;100361.91;;;16.41;100.00
5413;BME280;2729;50.056;8.678;2022-08-21T05:11:39;100366.38;;;16.58;100.00
5413;BME280;2729;50.056;8.678;2022-08-21T05:14:06;100364.41;;;16.44;100.00
5413;BME280;2729;50.056;8.678;2022-08-21T05:16:32;100371.75;;;16.37;100.00
5413;BME280;2729;50.056;8.678;2022-08-21T05:18:58;100365.41;;;16.42;100.00
5413;BME280;2729;50.056;8.678;2022-08-21T05:21:24;100370.72;;;16.59;100.00
5413;BME280;2729;50.056;8.678;2022-08-21T05:23:50;100368.25;;;16.75;100.00
5413;BME280;2729;50.056;8.678;2022-08-21T05:26:16;100376.22;;;16.73;100.00
5413;BME280;2729;50.056;8.678;2022-08-21T05:28:42;100372.28;;;16.63;100.00
5413;BME280;2729;50.056;8.678;2022-08-21T05:31:08;100368.63;;;16.67;100.00
5413;BME280;2729;50.056;8.678;2022-08-21T05:33:34;100373.09;;;16.65;100.00
5413;BME280;2729;50.056;8.678;2022-08-21T05:36:00;100371.66;;;16.77;100.00
5413;BME280;2729;50.056;8.678;2022-08-21T05:38:26;100377.41;;;16.85;100.00
5413;BME280;2729;50.056;8.678;2022-08-21T05:40:54;100383.53;;;16.85;100.00
5413;BME280;2729;50.056;8.678;2022-08-21T05:43:20;100381.38;;;16.93;100.00
5413;BME280;2729;50.056;8.678;2022-08-21T05:45:46;100378.19;;;17.04;100.00
5413;BME280;2729;50.056;8.678;2022-08-21T05:48:15;100377.81;;;17.12;100.00
5413;BME280;2729;50.056;8.678;2022-08-21T05:50:45;100377.19;;;17.24;100.00
5413;BME280;2729;50.056;8.678;2022-08-21T05:53:13;100366.09;;;17.34;100.00
5413;BME280;2729;50.056;8.678;2022-08-21T05:55:39;100373.47;;;17.45;100.00
5413;BME280;2729;50.056;8.678;2022-08-21T05:58:05;100379.34;;;17.50;100.00
5413;BME280;2729;50.056;8.678;2022-08-21T06:00:31;100373.84;;;17.55;100.00
5413;BME280;2729;50.056;8.678;2022-08-21T06:02:57;100383.63;;;17.70;100.00
5413;BME280;2729;50.056;8.678;2022-08-21T06:05:23;100384.31;;;17.74;100.00
5413;BME280;2729;50.056;8.678;2022-08-21T06:07:49;100388.41;;;17.79;100.00
5413;BME280;2729;50.056;8.678;2022-08-21T06:10:15;100377.44;;;17.87;100.00
5413;BME280;2729;50.056;8.678;2022-08-21T06:12:41;100375.84;;;18.00;100.00
5413;BME280;2729;50.056;8.678;2022-08-21T06:15:08;100374.50;;;18.09;100.00
5413;BME280;2729;50.056;8.678;2022-08-21T06:17:34;100374.34;;;18.12;100.00
5413;BME280;2729;50.056;8.678;2022-08-21T06:20:00;100379.72;;;18.10;100.00
5413;BME280;2729;50.056;8.678;2022-08-21T06:22:26;100381.63;;;18.24;100.00
5413;BME280;2729;50.056;8.678;2022-08-21T06:24:52;100379.94;;;18.39;100.00
5413;BME280;2729;50.056;8.678;2022-08-21T06:27:17;100378.13;;;18.55;100.00
5413;BME280;2729;50.056;8.678;2022-08-21T06:29:44;100384.47;;;18.68;100.00
5413;BME280;2729;50.056;8.678;2022-08-21T06:32:12;100384.28;;;18.71;100.00
5413;BME280;2729;50.056;8.678;2022-08-21T06:34:39;100381.81;;;18.84;100.00
5413;BME280;2729;50.056;8.678;2022-08-21T06:37:06;100377.19;;;18.87;100.00
5413;BME280;2729;50.056;8.678;2022-08-21T06:39:32;100378.94;;;19.03;100.00
5413;BME280;2729;50.056;8.678;2022-08-21T06:41:59;100378.78;;;19.06;100.00
5413;BME280;2729;50.056;8.678;2022-08-21T06:44:29;100376.34;;;19.17;100.00
5413;BME280;2729;50.056;8.678;2022-08-21T06:46:55;100372.81;;;19.32;100.00
5413;BME280;2729;50.056;8.678;2022-08-21T06:49:22;100375.44;;;19.32;100.00
5413;BME280;2729;50.056;8.678;2022-08-21T06:51:48;100368.47;;;19.45;100.00
5413;BME280;2729;50.056;8.678;2022-08-21T06:54:14;100366.25;;;19.53;100.00
5413;BME280;2729;50.056;8.678;2022-08-21T06:56:40;100366.94;;;19.71;100.00
5413;BME280;2729;50.056;8.678;2022-08-21T06:59:06;100364.75;;;19.64;100.00
5413;BME280;2729;50.056;8.678;2022-08-21T07:01:32;100362.28;;;19.75;100.00
5413;BME280;2729;50.056;8.678;2022-08-21T07:03:58;100365.50;;;19.94;100.00
5413;BME280;2729;50.056;8.678;2022-08-21T07:06:24;100365.31;;;20.11;100.00
5413;BME280;2729;50.056;8.678;2022-08-21T07:08:50;100367.63;;;20.30;100.00
5413;BME280;2729;50.056;8.678;2022-08-21T07:11:23;100360.16;;;20.37;100.00
5413;BME280;2729;50.056;8.678;2022-08-21T07:13:50;100367.63;;;20.44;100.00
5413;BME280;2729;50.056;8.678;2022-08-21T07:16:19;100361.53;;;20.57;100.00
5413;BME280;2729;50.056;8.678;2022-08-21T07:18:45;100367.19;;;20.65;100.00
5413;BME280;2729;50.056;8.678;2022-08-21T07:21:11;100362.25;;;20.73;100.00
5413;BME280;2729;50.056;8.678;2022-08-21T07:23:40;100365.13;;;20.97;99.09
5413;BME280;2729;50.056;8.678;2022-08-21T07:26:07;100364.03;;;20.86;100.00
5413;BME280;2729;50.056;8.678;2022-08-21T07:28:35;100364.44;;;20.80;100.00
5413;BME280;2729;50.056;8.678;2022-08-21T07:31:02;100360.00;;;20.94;100.00
5413;BME280;2729;50.056;8.678;2022-08-21T07:33:30;100353.16;;;21.16;100.00
5413;BME280;2729;50.056;8.678;2022-08-21T07:35:56;100361.72;;;21.34;100.00
5413;BME280;2729;50.056;8.678;2022-08-21T07:38:23;100356.47;;;21.20;100.00
5413;BME280;2729;50.056;8.678;2022-08-21T07:40:51;100352.56;;;21.26;100.00
5413;BME280;2729;50.056;8.678;2022-08-21T07:43:18;100353.53;;;21.37;100.00
5413;BME280;2729;50.056;8.678;2022-08-21T07:45:44;100349.28;;;21.35;100.00
5413;BME280;2729;50.056;8.678;2022-08-21T07:48:11;100349.28;;;21.35;100.00
5413;BME280;2729;50.056;8.678;2022-08-21T07:50:37;100345.25;;;21.55;100.00
5413;BME280;2729;50.056;8.678;2022-08-21T07:53:03;100343.78;;;21.63;100.00
5413;BME280;2729;50.056;8.678;2022-08-21T07:55:29;100332.69;;;21.82;99.61
5413;BME280;2729;50.056;8.678;2022-08-21T07:57:55;100333.75;;;21.92;100.00
5413;BME280;2729;50.056;8.678;2022-08-21T08:00:24;100338.53;;;21.87;100.00
5413;BME280;2729;50.056;8.678;2022-08-21T08:02:51;100334.28;;;21.97;100.00
5413;BME280;2729;50.056;8.678;2022-08-21T08:05:19;100339.38;;;22.00;99.32
5413;BME280;2729;50.056;8.678;2022-08-21T08:07:45;100337.13;;;22.20;92.59
5413;BME280;2729;50.056;8.678;2022-08-21T08:10:12;100327.81;;;22.38;91.18
5413;BME280;2729;50.056;8.678;2022-08-21T08:12:41;100331.31;;;22.38;95.80
5413;BME280;2729;50.056;8.678;2022-08-21T08:15:12;100330.66;;;22.48;94.86
5413;BME280;2729;50.056;8.678;2022-08-21T08:17:38;100329.00;;;22.58;98.50
5413;BME280;2729;50.056;8.678;2022-08-21T08:20:08;100328.31;;;22.43;100.00
5413;BME280;2729;50.056;8.678;2022-08-21T08:22:37;100337.09;;;22.56;98.77
5413;BME280;2729;50.056;8.678;2022-08-21T08:25:04;100332.53;;;22.82;83.15
5413;BME280;2729;50.056;8.678;2022-08-21T08:27:30;100326.44;;;23.04;83.68
5413;BME280;2729;50.056;8.678;2022-08-21T08:29:56;100326.03;;;22.86;91.73
5413;BME280;2729;50.056;8.678;2022-08-21T08:32:23;100329.41;;;22.88;90.53
5413;BME280;2729;50.056;8.678;2022-08-21T08:34:49;100324.31;;;23.20;76.07
5413;BME280;2729;50.056;8.678;2022-08-21T08:37:18;100322.94;;;23.03;88.12
5413;BME280;2729;50.056;8.678;2022-08-21T08:39:45;100319.81;;;23.09;86.17
5413;BME280;2729;50.056;8.678;2022-08-21T08:42:13;100316.94;;;23.35;85.55
5413;BME280;2729;50.056;8.678;2022-08-21T08:44:41;100307.63;;;23.29;83.62
5413;BME280;2729;50.056;8.678;2022-08-21T08:47:09;100302.03;;;23.67;72.52
5413;BME280;2729;50.056;8.678;2022-08-21T08:49:52;100297.75;;;23.98;70.79
5413;BME280;2729;50.056;8.678;2022-08-21T08:52:30;100292.75;;;24.27;71.94
5413;BME280;2729;50.056;8.678;2022-08-21T08:55:15;100293.09;;;24.23;74.83
5413;BME280;2729;50.056;8.678;2022-08-21T08:57:45;100287.78;;;24.34;74.84
5413;BME280;2729;50.056;8.678;2022-08-21T09:00:14;100297.50;;;24.13;72.22
5413;BME280;2729;50.056;8.678;2022-08-21T09:02:42;100294.56;;;24.38;68.25
5413;BME280;2729;50.056;8.678;2022-08-21T09:06:00;100296.91;;;24.63;64.86
5413;BME280;2729;50.056;8.678;2022-08-21T09:08:15;100292.47;;;24.42;69.45
5413;BME280;2729;50.056;8.678;2022-08-21T09:13:50;100287.56;;;24.58;65.23
5413;BME280;2729;50.056;8.678;2022-08-21T09:19:28;100281.16;;;24.81;66.61
5413;BME280;2729;50.056;8.678;2022-08-21T09:22:08;100279.78;;;24.66;68.78
5413;BME280;2729;50.056;8.678;2022-08-21T09:27:23;100271.91;;;24.85;63.43
5413;BME280;2729;50.056;8.678;2022-08-21T09:29:52;100280.88;;;24.63;64.98
5413;BME280;2729;50.056;8.678;2022-08-21T09:32:25;100279.16;;;24.94;62.20
5413;BME280;2729;50.056;8.678;2022-08-21T09:37:44;100282.22;;;24.90;59.72
5413;BME280;2729;50.056;8.678;2022-08-21T09:45:41;100282.56;;;25.17;56.96
5413;BME280;2729;50.056;8.678;2022-08-21T09:48:19;100278.66;;;25.21;54.99
5413;BME280;2729;50.056;8.678;2022-08-21T09:50:47;100272.69;;;25.39;57.00
5413;BME280;2729;50.056;8.678;2022-08-21T09:53:17;100277.63;;;25.43;59.04
5413;BME280;2729;50.056;8.678;2022-08-21T09:55:58;100269.94;;;25.50;59.37
5413;BME280;2729;50.056;8.678;2022-08-21T09:58:46;100277.81;;;25.21;58.88
5413;BME280;2729;50.056;8.678;2022-08-21T10:01:16;100269.53;;;25.03;59.39
5413;BME280;2729;50.056;8.678;2022-08-21T10:03:43;100267.88;;;24.91;58.17
5413;BME280;2729;50.056;8.678;2022-08-21T10:06:09;100272.47;;;25.00;58.81
5413;BME280;2729;50.056;8.678;2022-08-21T10:08:39;100267.69;;;24.83;57.67
5413;BME280;2729;50.056;8.678;2022-08-21T10:11:08;100259.72;;;24.92;56.06
5413;BME280;2729;50.056;8.678;2022-08-21T10:13:50;100263.31;;;24.82;55.39
5413;BME280;2729;50.056;8.678;2022-08-21T10:16:46;100253.00;;;25.09;55.24
5413;BME280;2729;50.056;8.678;2022-08-21T10:19:26;100249.66;;;25.17;54.84
5413;BME280;2729;50.056;8.678;2022-08-21T10:22:09;100254.91;;;25.28;55.05
5413;BME280;2729;50.056;8.678;2022-08-21T10:27:22;100244.97;;;25.09;54.07
5413;BME280;2729;50.056;8.678;2022-08-21T10:29:58;100240.34;;;25.11;54.60
5413;BME280;2729;50.056;8.678;2022-08-21T10:32:40;100241.03;;;24.92;54.09
5413;BME280;2729;50.056;8.678;2022-08-21T10:35:25;100238.19;;;25.05;54.28
5413;BME280;2729;50.056;8.678;2022-08-21T10:38:08;100245.03;;;24.98;55.01
5413;BME280;2729;50.056;8.678;2022-08-21T10:40:48;100240.78;;;25.16;55.40
5413;BME280;2729;50.056;8.678;2022-08-21T10:46:36;100230.41;;;25.84;51.46
5413;BME280;2729;50.056;8.678;2022-08-21T10:49:14;100222.09;;;25.77;51.39
5413;BME280;2729;50.056;8.678;2022-08-21T10:51:59;100223.38;;;25.92;50.23
5413;BME280;2729;50.056;8.678;2022-08-21T10:57:12;100231.94;;;26.46;49.53
5413;BME280;2729;50.056;8.678;2022-08-21T10:59:53;100216.03;;;26.54;47.54
5413;BME280;2729;50.056;8.678;2022-08-21T11:02:30;100218.38;;;26.28;49.17
5413;BME280;2729;50.056;8.678;2022-08-21T11:05:04;100223.47;;;26.31;49.82
5413;BME280;2729;50.056;8.678;2022-08-21T11:07:35;100213.91;;;26.57;48.05
5413;BME280;2729;50.056;8.678;2022-08-21T11:10:09;100213.91;;;26.57;48.54
5413;BME280;2729;50.056;8.678;2022-08-21T11:12:44;100217.25;;;26.31;49.51
5413;BME280;2729;50.056;8.678;2022-08-21T11:15:27;100213.59;;;26.12;48.96
5413;BME280;2729;50.056;8.678;2022-08-21T11:18:13;100208.81;;;26.16;52.73
5413;BME280;2729;50.056;8.678;2022-08-21T11:20:45;100204.50;;;25.84;50.07
5413;BME280;2729;50.056;8.678;2022-08-21T11:23:19;100216.72;;;25.77;49.71
5413;BME280;2729;50.056;8.678;2022-08-21T11:25:53;100205.06;;;25.88;51.61
5413;BME280;2729;50.056;8.678;2022-08-21T11:28:31;100210.56;;;25.86;49.77
5413;BME280;2729;50.056;8.678;2022-08-21T11:36:24;100199.78;;;26.17;49.70
5413;BME280;2729;50.056;8.678;2022-08-21T11:39:09;100194.66;;;25.94;48.05
5413;BME280;2729;50.056;8.678;2022-08-21T11:50:18;100186.00;;;26.12;49.02
5413;BME280;2729;50.056;8.678;2022-08-21T11:53:11;100180.34;;;26.05;50.37
5413;BME280;2729;50.056;8.678;2022-08-21T11:58:29;100175.00;;;26.73;45.50
5413;BME280;2729;50.056;8.678;2022-08-21T12:01:05;100174.63;;;27.14;44.95
5413;BME280;2729;50.056;8.678;2022-08-21T12:03:42;100172.25;;;27.39;45.69
5413;BME280;2729;50.056;8.678;2022-08-21T12:06:35;100163.34;;;27.11;47.80
5413;BME280;2729;50.056;8.678;2022-08-21T12:09:06;100165.78;;;26.85;45.00
5413;BME280;2729;50.056;8.678;2022-08-21T12:11:46;100166.22;;;26.80;44.87
5413;BME280;2729;50.056;8.678;2022-08-21T12:14:15;100173.88;;;26.56;44.77
5413;BME280;2729;50.056;8.678;2022-08-21T12:16:44;100166.66;;;26.76;45.35
5413;BME280;2729;50.056;8.678;2022-08-21T12:19:28;100168.50;;;26.75;46.11
5413;BME280;2729;50.056;8.678;2022-08-21T12:22:13;100168.38;;;26.57;45.63
5413;BME280;2729;50.056;8.678;2022-08-21T12:24:42;100157.81;;;26.56;47.56
5413;BME280;2729;50.056;8.678;2022-08-21T12:27:27;100163.13;;;26.75;46.86
5413;BME280;2729;50.056;8.678;2022-08-21T12:29:58;100165.25;;;26.81;48.29
5413;BME280;2729;50.056;8.678;2022-08-21T12:35:11;100163.72;;;26.69;46.19
5413;BME280;2729;50.056;8.678;2022-08-21T12:37:46;100157.53;;;26.69;47.09
5413;BME280;2729;50.056;8.678;2022-08-21T12:40:20;100151.75;;;26.54;48.17
5413;BME280;2729;50.056;8.678;2022-08-21T12:42:50;100153.59;;;26.63;47.39
5413;BME280;2729;50.056;8.678;2022-08-21T12:45:37;100147.00;;;27.04;43.31
5413;BME280;2729;50.056;8.678;2022-08-21T12:50:56;100142.25;;;27.98;44.19
5413;BME280;2729;50.056;8.678;2022-08-21T12:53:41;100129.06;;;28.05;41.24
5413;BME280;2729;50.056;8.678;2022-08-21T12:56:16;100140.13;;;28.02;43.11
5413;BME280;2729;50.056;8.678;2022-08-21T12:58:51;100132.16;;;28.28;42.66
5413;BME280;2729;50.056;8.678;2022-08-21T13:01:25;100145.53;;;28.63;43.51
5413;BME280;2729;50.056;8.678;2022-08-21T13:03:55;100137.69;;;28.70;41.76
5413;BME280;2729;50.056;8.678;2022-08-21T13:06:23;100114.75;;;28.58;41.87
5413;BME280;2729;50.056;8.678;2022-08-21T13:08:56;100135.09;;;29.12;41.30
5413;BME280;2729;50.056;8.678;2022-08-21T13:11:23;100120.50;;;29.15;38.47
5413;BME280;2729;50.056;8.678;2022-08-21T13:13:51;100132.00;;;28.73;39.33
5413;BME280;2729;50.056;8.678;2022-08-21T13:16:20;100131.38;;;28.00;40.65
5413;BME280;2729;50.056;8.678;2022-08-21T13:19:03;100129.91;;;27.88;40.52
5413;BME280;2729;50.056;8.678;2022-08-21T13:21:35;100134.66;;;27.94;41.50
5413;BME280;2729;50.056;8.678;2022-08-21T13:24:20;100131.44;;;28.08;40.98
5413;BME280;2729;50.056;8.678;2022-08-21T13:26:47;100118.03;;;28.08;40.71
5413;BME280;2729;50.056;8.678;2022-08-21T13:29:16;100123.13;;;28.55;40.79
5413;BME280;2729;50.056;8.678;2022-08-21T13:31:49;100122.53;;;28.61;41.24
5413;BME280;2729;50.056;8.678;2022-08-21T13:34:17;100126.06;;;28.43;39.95
5413;BME280;2729;50.056;8.678;2022-08-21T13:36:44;100112.78;;;28.42;37.85
5413;BME280;2729;50.056;8.678;2022-08-21T13:39:12;100116.88;;;28.28;40.42
5413;BME280;2729;50.056;8.678;2022-08-21T13:41:46;100108.16;;;28.26;39.44
5413;BME280;2729;50.056;8.678;2022-08-21T13:44:23;100113.88;;;28.31;38.31
5413;BME280;2729;50.056;8.678;2022-08-21T13:46:53;100111.13;;;28.23;38.56
5413;BME280;2729;50.056;8.678;2022-08-21T13:49:23;100117.09;;;28.17;39.86
5413;BME280;2729;50.056;8.678;2022-08-21T13:51:52;100108.66;;;28.12;39.82
5413;BME280;2729;50.056;8.678;2022-08-21T13:54:37;100101.09;;;27.90;38.96
5413;BME280;2729;50.056;8.678;2022-08-21T13:57:04;100095.19;;;27.86;39.16
5413;BME280;2729;50.056;8.678;2022-08-21T13:59:35;100108.38;;;27.79;40.27
5413;BME280;2729;50.056;8.678;2022-08-21T14:02:12;100101.78;;;27.92;40.65
5413;BME280;2729;50.056;8.678;2022-08-21T14:04:44;100099.09;;;28.27;42.43
5413;BME280;2729;50.056;8.678;2022-08-21T14:07:19;100088.16;;;28.46;40.29
5413;BME280;2729;50.056;8.678;2022-08-21T14:09:47;100087.38;;;28.54;38.59